sensor_id;sensor_type;location;lat;lon;timestamp;temperature;humidity
12853;DHT22;6495;51.808;7.478;2022-09-04T00:02:05;20.10;59.70
12853;DHT22;6495;51.808;7.478;2022-09-04T00:04:50;20.10;59.70
12853;DHT22;6495;51.808;7.478;2022-09-04T00:07:27;20.10;59.80
12853;DHT22;6495;51.808;7.478;2022-09-04T00:10:06;20.10;59.90
12853;DHT22;6495;51.808;7.478;2022-09-04T00:12:45;20.00;59.90
12853;DHT22;6495;51.808;7.478;2022-09-04T00:15:20;20.00;60.00
12853;DHT22;6495;51.808;7.478;2022-09-04T00:17:56;20.00;60.10
12853;DHT22;6495;51.808;7.478;2022-09-04T00:20:35;19.90;60.10
12853;DHT22;6495;51.808;7.478;2022-09-04T00:23:12;19.90;60.10
12853;DHT22;6495;51.808;7.478;2022-09-04T00:25:53;19.90;60.20
12853;DHT22;6495;51.808;7.478;2022-09-04T00:28:33;19.90;60.40
12853;DHT22;6495;51.808;7.478;2022-09-04T00:31:13;19.80;60.30
12853;DHT22;6495;51.808;7.478;2022-09-04T00:34:00;19.80;60.30
12853;DHT22;6495;51.808;7.478;2022-09-04T00:36:35;19.80;60.60
12853;DHT22;6495;51.808;7.478;2022-09-04T00:39:12;19.70;60.50
12853;DHT22;6495;51.808;7.478;2022-09-04T00:41:57;19.70;60.70
12853;DHT22;6495;51.808;7.478;2022-09-04T00:44:56;19.70;61.00
12853;DHT22;6495;51.808;7.478;2022-09-04T00:51:25;19.60;61.60
12853;DHT22;6495;51.808;7.478;2022-09-04T00:54:37;19.60;61.70
12853;DHT22;6495;51.808;7.478;2022-09-04T00:57:50;19.60;62.00
12853;DHT22;6495;51.808;7.478;2022-09-04T01:00:27;19.50;61.90
12853;DHT22;6495;51.808;7.478;2022-09-04T01:03:13;19.50;61.40
12853;DHT22;6495;51.808;7.478;2022-09-04T01:06:11;19.50;61.50
12853;DHT22;6495;51.808;7.478;2022-09-04T01:09:02;19.50;61.90
12853;DHT22;6495;51.808;7.478;2022-09-04T01:11:46;19.50;61.90
12853;DHT22;6495;51.808;7.478;2022-09-04T01:14:32;19.50;61.90
12853;DHT22;6495;51.808;7.478;2022-09-04T01:17:13;19.40;62.00
12853;DHT22;6495;51.808;7.478;2022-09-04T01:19:55;19.40;62.20
12853;DHT22;6495;51.808;7.478;2022-09-04T01:26:05;19.40;62.90
12853;DHT22;6495;51.808;7.478;2022-09-04T01:28:43;19.40;63.70
12853;DHT22;6495;51.808;7.478;2022-09-04T01:31:24;19.40;63.10
12853;DHT22;6495;51.808;7.478;2022-09-04T01:34:05;19.30;63.20
12853;DHT22;6495;51.808;7.478;2022-09-04T01:36:49;19.30;63.50
12853;DHT22;6495;51.808;7.478;2022-09-04T01:39:25;19.30;63.70
12853;DHT22;6495;51.808;7.478;2022-09-04T01:42:02;19.20;63.80
12853;DHT22;6495;51.808;7.478;2022-09-04T01:44:35;19.20;64.00
12853;DHT22;6495;51.808;7.478;2022-09-04T01:47:10;19.20;64.30
12853;DHT22;6495;51.808;7.478;2022-09-04T01:49:45;19.20;64.10
12853;DHT22;6495;51.808;7.478;2022-09-04T01:52:33;19.10;63.80
12853;DHT22;6495;51.808;7.478;2022-09-04T01:55:13;19.10;64.00
12853;DHT22;6495;51.808;7.478;2022-09-04T01:58:05;19.10;63.70
12853;DHT22;6495;51.808;7.478;2022-09-04T02:00:51;19.10;63.80
12853;DHT22;6495;51.808;7.478;2022-09-04T02:03:35;19.00;63.70
12853;DHT22;6495;51.808;7.478;2022-09-04T02:06:28;19.00;63.80
12853;DHT22;6495;51.808;7.478;2022-09-04T02:09:05;19.00;64.20
12853;DHT22;6495;51.808;7.478;2022-09-04T02:11:48;19.00;64.40
12853;DHT22;6495;51.808;7.478;2022-09-04T02:14:32;19.00;64.70
12853;DHT22;6495;51.808;7.478;2022-09-04T02:17:09;18.90;64.90
12853;DHT22;6495;51.808;7.478;2022-09-04T02:20:06;18.90;64.50
12853;DHT22;6495;51.808;7.478;2022-09-04T02:22:46;18.90;65.50
12853;DHT22;6495;51.808;7.478;2022-09-04T02:25:26;18.80;65.10
12853;DHT22;6495;51.808;7.478;2022-09-04T02:28:10;18.80;65.20
12853;DHT22;6495;51.808;7.478;2022-09-04T02:30:56;18.80;65.40
12853;DHT22;6495;51.808;7.478;2022-09-04T02:33:36;18.70;65.50
12853;DHT22;6495;51.808;7.478;2022-09-04T02:36:11;18.70;65.60
12853;DHT22;6495;51.808;7.478;2022-09-04T02:38:53;18.70;65.80
12853;DHT22;6495;51.808;7.478;2022-09-04T02:41:35;18.70;66.00
12853;DHT22;6495;51.808;7.478;2022-09-04T02:44:23;18.60;66.10
12853;DHT22;6495;51.808;7.478;2022-09-04T02:47:09;18.60;66.50
12853;DHT22;6495;51.808;7.478;2022-09-04T02:49:55;18.60;66.50
12853;DHT22;6495;51.808;7.478;2022-09-04T02:55:44;18.50;66.70
12853;DHT22;6495;51.808;7.478;2022-09-04T02:58:32;18.50;66.60
12853;DHT22;6495;51.808;7.478;2022-09-04T03:01:13;18.40;66.70
12853;DHT22;6495;51.808;7.478;2022-09-04T03:03:56;18.40;66.80
12853;DHT22;6495;51.808;7.478;2022-09-04T03:06:51;18.40;67.00
12853;DHT22;6495;51.808;7.478;2022-09-04T03:09:26;18.30;67.20
12853;DHT22;6495;51.808;7.478;2022-09-04T03:12:03;18.30;67.20
12853;DHT22;6495;51.808;7.478;2022-09-04T03:14:45;18.30;67.30
12853;DHT22;6495;51.808;7.478;2022-09-04T03:17:22;18.20;67.40
12853;DHT22;6495;51.808;7.478;2022-09-04T03:19:59;18.20;67.50
12853;DHT22;6495;51.808;7.478;2022-09-04T03:22:40;18.20;67.70
12853;DHT22;6495;51.808;7.478;2022-09-04T03:28:34;18.10;68.20
12853;DHT22;6495;51.808;7.478;2022-09-04T03:31:22;18.10;68.10
12853;DHT22;6495;51.808;7.478;2022-09-04T03:34:04;18.10;68.10
12853;DHT22;6495;51.808;7.478;2022-09-04T03:36:49;18.00;68.20
12853;DHT22;6495;51.808;7.478;2022-09-04T03:39:34;18.00;68.20
12853;DHT22;6495;51.808;7.478;2022-09-04T03:42:14;18.00;68.40
12853;DHT22;6495;51.808;7.478;2022-09-04T03:44:58;17.90;69.20
12853;DHT22;6495;51.808;7.478;2022-09-04T03:47:41;17.90;68.60
12853;DHT22;6495;51.808;7.478;2022-09-04T03:50:21;17.90;68.80
12853;DHT22;6495;51.808;7.478;2022-09-04T03:53:03;17.80;68.80
12853;DHT22;6495;51.808;7.478;2022-09-04T03:56:13;17.80;68.90
12853;DHT22;6495;51.808;7.478;2022-09-04T03:59:05;17.80;69.40
12853;DHT22;6495;51.808;7.478;2022-09-04T04:01:47;17.80;69.10
12853;DHT22;6495;51.808;7.478;2022-09-04T04:04:53;17.70;69.30
12853;DHT22;6495;51.808;7.478;2022-09-04T04:07:45;17.70;70.10
12853;DHT22;6495;51.808;7.478;2022-09-04T04:10:29;17.70;69.40
12853;DHT22;6495;51.808;7.478;2022-09-04T04:13:48;17.70;69.50
12853;DHT22;6495;51.808;7.478;2022-09-04T04:16:41;17.60;70.40
12853;DHT22;6495;51.808;7.478;2022-09-04T04:19:38;17.60;69.70
12853;DHT22;6495;51.808;7.478;2022-09-04T04:22:39;17.60;69.80
12853;DHT22;6495;51.808;7.478;2022-09-04T04:25:28;17.50;70.30
12853;DHT22;6495;51.808;7.478;2022-09-04T04:28:32;17.50;69.90
12853;DHT22;6495;51.808;7.478;2022-09-04T04:31:20;17.40;69.90
12853;DHT22;6495;51.808;7.478;2022-09-04T04:34:00;17.40;69.90
12853;DHT22;6495;51.808;7.478;2022-09-04T04:36:38;17.40;70.00
12853;DHT22;6495;51.808;7.478;2022-09-04T04:39:21;17.40;70.10
12853;DHT22;6495;51.808;7.478;2022-09-04T04:42:07;17.30;70.10
12853;DHT22;6495;51.808;7.478;2022-09-04T04:45:04;17.30;70.30
12853;DHT22;6495;51.808;7.478;2022-09-04T04:51:34;17.20;70.60
12853;DHT22;6495;51.808;7.478;2022-09-04T04:54:25;17.20;70.80
12853;DHT22;6495;51.808;7.478;2022-09-04T04:57:26;17.20;70.60
12853;DHT22;6495;51.808;7.478;2022-09-04T05:00:07;17.20;71.00
12853;DHT22;6495;51.808;7.478;2022-09-04T05:02:49;17.20;70.70
12853;DHT22;6495;51.808;7.478;2022-09-04T05:05:46;17.20;70.80
12853;DHT22;6495;51.808;7.478;2022-09-04T05:08:34;17.10;71.30
12853;DHT22;6495;51.808;7.478;2022-09-04T05:11:12;17.10;70.90
12853;DHT22;6495;51.808;7.478;2022-09-04T05:13:59;17.10;71.00
12853;DHT22;6495;51.808;7.478;2022-09-04T05:16:39;17.10;71.10
12853;DHT22;6495;51.808;7.478;2022-09-04T05:19:25;17.10;71.10
12853;DHT22;6495;51.808;7.478;2022-09-04T05:22:04;17.00;71.10
12853;DHT22;6495;51.808;7.478;2022-09-04T05:24:47;17.00;71.10
12853;DHT22;6495;51.808;7.478;2022-09-04T05:27:41;17.00;71.20
12853;DHT22;6495;51.808;7.478;2022-09-04T05:30:22;17.00;71.80
12853;DHT22;6495;51.808;7.478;2022-09-04T05:33:07;17.00;71.50
12853;DHT22;6495;51.808;7.478;2022-09-04T05:35:46;17.00;71.60
12853;DHT22;6495;51.808;7.478;2022-09-04T05:38:25;17.00;72.10
12853;DHT22;6495;51.808;7.478;2022-09-04T05:41:04;17.00;72.40
12853;DHT22;6495;51.808;7.478;2022-09-04T05:43:48;17.10;72.70
12853;DHT22;6495;51.808;7.478;2022-09-04T05:46:40;17.10;73.10
12853;DHT22;6495;51.808;7.478;2022-09-04T05:49:26;17.10;73.20
12853;DHT22;6495;51.808;7.478;2022-09-04T05:52:43;17.10;73.30
12853;DHT22;6495;51.808;7.478;2022-09-04T05:59:15;17.20;74.10
12853;DHT22;6495;51.808;7.478;2022-09-04T06:02:16;17.30;74.40
12853;DHT22;6495;51.808;7.478;2022-09-04T06:05:21;17.30;75.20
12853;DHT22;6495;51.808;7.478;2022-09-04T06:08:00;17.30;74.60
12853;DHT22;6495;51.808;7.478;2022-09-04T06:10:53;17.30;74.40
12853;DHT22;6495;51.808;7.478;2022-09-04T06:13:44;17.40;74.60
12853;DHT22;6495;51.808;7.478;2022-09-04T06:16:55;17.40;74.80
12853;DHT22;6495;51.808;7.478;2022-09-04T06:19:48;17.40;75.00
12853;DHT22;6495;51.808;7.478;2022-09-04T06:22:42;17.40;74.90
12853;DHT22;6495;51.808;7.478;2022-09-04T06:25:36;17.50;75.20
12853;DHT22;6495;51.808;7.478;2022-09-04T06:28:47;17.50;75.30
12853;DHT22;6495;51.808;7.478;2022-09-04T06:31:52;17.50;75.30
12853;DHT22;6495;51.808;7.478;2022-09-04T06:38:00;17.70;75.50
12853;DHT22;6495;51.808;7.478;2022-09-04T06:40:51;17.70;75.30
12853;DHT22;6495;51.808;7.478;2022-09-04T06:43:34;17.80;75.70
12853;DHT22;6495;51.808;7.478;2022-09-04T06:46:41;17.80;75.40
12853;DHT22;6495;51.808;7.478;2022-09-04T06:49:21;17.90;76.20
12853;DHT22;6495;51.808;7.478;2022-09-04T06:52:06;17.90;75.50
12853;DHT22;6495;51.808;7.478;2022-09-04T06:54:48;18.00;75.80
12853;DHT22;6495;51.808;7.478;2022-09-04T06:57:37;18.00;75.70
12853;DHT22;6495;51.808;7.478;2022-09-04T07:00:18;18.10;75.90
12853;DHT22;6495;51.808;7.478;2022-09-04T07:03:06;18.20;76.30
12853;DHT22;6495;51.808;7.478;2022-09-04T07:05:59;18.20;76.30
12853;DHT22;6495;51.808;7.478;2022-09-04T07:08:50;18.30;76.60
12853;DHT22;6495;51.808;7.478;2022-09-04T07:11:40;18.40;76.80
12853;DHT22;6495;51.808;7.478;2022-09-04T07:14:36;18.50;77.90
12853;DHT22;6495;51.808;7.478;2022-09-04T07:17:16;18.50;77.10
12853;DHT22;6495;51.808;7.478;2022-09-04T07:20:00;18.60;77.00
12853;DHT22;6495;51.808;7.478;2022-09-04T07:22:57;18.70;77.10
12853;DHT22;6495;51.808;7.478;2022-09-04T07:25:44;18.80;77.70
12853;DHT22;6495;51.808;7.478;2022-09-04T07:28:33;19.00;77.80
12853;DHT22;6495;51.808;7.478;2022-09-04T07:31:18;19.10;77.60
12853;DHT22;6495;51.808;7.478;2022-09-04T07:34:00;19.30;78.10
12853;DHT22;6495;51.808;7.478;2022-09-04T07:36:41;19.50;77.60
12853;DHT22;6495;51.808;7.478;2022-09-04T07:39:22;19.60;77.60
12853;DHT22;6495;51.808;7.478;2022-09-04T07:42:07;19.80;77.60
12853;DHT22;6495;51.808;7.478;2022-09-04T07:44:46;20.00;77.70
12853;DHT22;6495;51.808;7.478;2022-09-04T07:47:26;20.20;77.50
12853;DHT22;6495;51.808;7.478;2022-09-04T07:50:20;20.30;77.20
12853;DHT22;6495;51.808;7.478;2022-09-04T07:53:23;20.50;77.40
12853;DHT22;6495;51.808;7.478;2022-09-04T07:55:59;20.70;77.40
12853;DHT22;6495;51.808;7.478;2022-09-04T07:58:46;20.80;77.30
12853;DHT22;6495;51.808;7.478;2022-09-04T08:01:40;21.00;77.50
12853;DHT22;6495;51.808;7.478;2022-09-04T08:04:38;21.20;77.20
12853;DHT22;6495;51.808;7.478;2022-09-04T08:07:50;21.40;77.90
12853;DHT22;6495;51.808;7.478;2022-09-04T08:10:31;21.60;77.70
12853;DHT22;6495;51.808;7.478;2022-09-04T08:13:19;21.80;77.40
12853;DHT22;6495;51.808;7.478;2022-09-04T08:16:05;21.90;77.90
12853;DHT22;6495;51.808;7.478;2022-09-04T08:18:55;22.10;77.40
12853;DHT22;6495;51.808;7.478;2022-09-04T08:21:30;22.20;77.90
12853;DHT22;6495;51.808;7.478;2022-09-04T08:24:26;22.40;77.50
12853;DHT22;6495;51.808;7.478;2022-09-04T08:27:33;22.60;77.70
12853;DHT22;6495;51.808;7.478;2022-09-04T08:30:14;22.80;77.70
12853;DHT22;6495;51.808;7.478;2022-09-04T08:33:15;22.90;77.60
12853;DHT22;6495;51.808;7.478;2022-09-04T08:36:12;23.10;78.20
12853;DHT22;6495;51.808;7.478;2022-09-04T08:39:06;23.20;77.10
12853;DHT22;6495;51.808;7.478;2022-09-04T08:42:01;23.30;77.30
12853;DHT22;6495;51.808;7.478;2022-09-04T08:48:33;23.40;77.80
12853;DHT22;6495;51.808;7.478;2022-09-04T08:51:59;23.50;77.30
12853;DHT22;6495;51.808;7.478;2022-09-04T08:55:32;23.60;77.50
12853;DHT22;6495;51.808;7.478;2022-09-04T08:58:29;23.80;78.00
12853;DHT22;6495;51.808;7.478;2022-09-04T09:01:54;24.00;77.30
12853;DHT22;6495;51.808;7.478;2022-09-04T09:05:12;24.10;77.50
12853;DHT22;6495;51.808;7.478;2022-09-04T09:08:10;24.20;77.20
12853;DHT22;6495;51.808;7.478;2022-09-04T09:18:32;24.60;77.70
12853;DHT22;6495;51.808;7.478;2022-09-04T09:21:09;24.70;77.00
12853;DHT22;6495;51.808;7.478;2022-09-04T09:24:20;24.80;76.90
12853;DHT22;6495;51.808;7.478;2022-09-04T09:30:55;25.00;76.50
12853;DHT22;6495;51.808;7.478;2022-09-04T09:37:44;25.30;76.40
12853;DHT22;6495;51.808;7.478;2022-09-04T09:44:10;25.70;75.80
12853;DHT22;6495;51.808;7.478;2022-09-04T09:47:14;25.80;75.30
12853;DHT22;6495;51.808;7.478;2022-09-04T09:57:50;26.10;75.40
12853;DHT22;6495;51.808;7.478;2022-09-04T10:01:06;26.20;74.40
12853;DHT22;6495;51.808;7.478;2022-09-04T10:04:10;26.30;74.60
12853;DHT22;6495;51.808;7.478;2022-09-04T10:07:40;26.30;74.30
12853;DHT22;6495;51.808;7.478;2022-09-04T10:10:49;26.50;74.30
12853;DHT22;6495;51.808;7.478;2022-09-04T10:13:54;26.60;74.10
12853;DHT22;6495;51.808;7.478;2022-09-04T10:20:41;26.70;73.40
12853;DHT22;6495;51.808;7.478;2022-09-04T10:23:45;26.80;73.20
12853;DHT22;6495;51.808;7.478;2022-09-04T10:26:53;26.90;73.00
12853;DHT22;6495;51.808;7.478;2022-09-04T10:30:01;27.00;72.30
12853;DHT22;6495;51.808;7.478;2022-09-04T10:36:03;27.20;72.40
12853;DHT22;6495;51.808;7.478;2022-09-04T10:38:52;27.30;71.80
12853;DHT22;6495;51.808;7.478;2022-09-04T10:42:04;27.40;71.60
12853;DHT22;6495;51.808;7.478;2022-09-04T10:44:54;27.40;70.60
12853;DHT22;6495;51.808;7.478;2022-09-04T10:47:45;27.50;71.40
12853;DHT22;6495;51.808;7.478;2022-09-04T10:50:41;27.60;71.30
12853;DHT22;6495;51.808;7.478;2022-09-04T10:57:03;27.80;70.70
12853;DHT22;6495;51.808;7.478;2022-09-04T10:59:55;27.90;70.60
12853;DHT22;6495;51.808;7.478;2022-09-04T11:03:13;28.00;70.60
12853;DHT22;6495;51.808;7.478;2022-09-04T11:06:16;28.10;69.10
12853;DHT22;6495;51.808;7.478;2022-09-04T11:09:25;28.30;69.70
12853;DHT22;6495;51.808;7.478;2022-09-04T11:12:30;28.50;70.00
12853;DHT22;6495;51.808;7.478;2022-09-04T11:15:25;28.60;69.00
12853;DHT22;6495;51.808;7.478;2022-09-04T11:21:57;28.90;67.10
12853;DHT22;6495;51.808;7.478;2022-09-04T11:25:13;28.90;66.80
12853;DHT22;6495;51.808;7.478;2022-09-04T11:28:32;29.00;67.40
12853;DHT22;6495;51.808;7.478;2022-09-04T11:31:27;29.10;67.70
12853;DHT22;6495;51.808;7.478;2022-09-04T11:34:34;29.10;68.10
12853;DHT22;6495;51.808;7.478;2022-09-04T11:44:04;29.40;67.20
12853;DHT22;6495;51.808;7.478;2022-09-04T11:50:14;29.60;64.70
12853;DHT22;6495;51.808;7.478;2022-09-04T11:53:08;29.70;65.80
12853;DHT22;6495;51.808;7.478;2022-09-04T11:59:44;29.80;64.20
12853;DHT22;6495;51.808;7.478;2022-09-04T12:06:05;30.00;64.10
12853;DHT22;6495;51.808;7.478;2022-09-04T12:09:06;30.00;64.30
12853;DHT22;6495;51.808;7.478;2022-09-04T12:19:06;30.00;63.50
12853;DHT22;6495;51.808;7.478;2022-09-04T12:32:14;30.30;61.70
12853;DHT22;6495;51.808;7.478;2022-09-04T12:38:48;30.40;61.20
12853;DHT22;6495;51.808;7.478;2022-09-04T12:41:33;30.50;59.80
12853;DHT22;6495;51.808;7.478;2022-09-04T12:44:22;30.60;61.70
12853;DHT22;6495;51.808;7.478;2022-09-04T12:47:14;30.60;60.40
12853;DHT22;6495;51.808;7.478;2022-09-04T12:50:17;30.60;59.50
12853;DHT22;6495;51.808;7.478;2022-09-04T12:53:08;30.60;59.10
12853;DHT22;6495;51.808;7.478;2022-09-04T12:55:56;30.60;59.30
12853;DHT22;6495;51.808;7.478;2022-09-04T12:58:54;30.60;60.70
12853;DHT22;6495;51.808;7.478;2022-09-04T13:01:50;30.60;59.30
12853;DHT22;6495;51.808;7.478;2022-09-04T13:04:34;30.60;60.00
12853;DHT22;6495;51.808;7.478;2022-09-04T13:07:29;30.70;60.10
12853;DHT22;6495;51.808;7.478;2022-09-04T13:10:20;30.70;59.60
12853;DHT22;6495;51.808;7.478;2022-09-04T13:12:59;30.80;59.60
12853;DHT22;6495;51.808;7.478;2022-09-04T13:15:39;30.90;59.80
12853;DHT22;6495;51.808;7.478;2022-09-04T13:18:31;31.00;59.80
12853;DHT22;6495;51.808;7.478;2022-09-04T13:21:21;31.20;59.50
12853;DHT22;6495;51.808;7.478;2022-09-04T13:24:09;31.30;59.30
12853;DHT22;6495;51.808;7.478;2022-09-04T13:26:56;31.30;59.20
12853;DHT22;6495;51.808;7.478;2022-09-04T13:29:43;31.30;58.90
12853;DHT22;6495;51.808;7.478;2022-09-04T13:32:49;31.40;58.90
12853;DHT22;6495;51.808;7.478;2022-09-04T13:45:10;31.40;57.80
12853;DHT22;6495;51.808;7.478;2022-09-04T13:47:44;31.40;58.20
12853;DHT22;6495;51.808;7.478;2022-09-04T13:50:23;31.40;58.20
12853;DHT22;6495;51.808;7.478;2022-09-04T13:52:57;31.40;58.10
12853;DHT22;6495;51.808;7.478;2022-09-04T13:55:34;31.40;58.10
12853;DHT22;6495;51.808;7.478;2022-09-04T13:58:10;31.50;58.10
12853;DHT22;6495;51.808;7.478;2022-09-04T14:00:50;31.40;57.70
12853;DHT22;6495;51.808;7.478;2022-09-04T14:03:29;31.40;57.60
12853;DHT22;6495;51.808;7.478;2022-09-04T14:06:04;31.30;57.20
12853;DHT22;6495;51.808;7.478;2022-09-04T14:08:41;31.30;57.60
12853;DHT22;6495;51.808;7.478;2022-09-04T14:11:47;31.20;57.50
12853;DHT22;6495;51.808;7.478;2022-09-04T14:14:47;31.20;57.10
12853;DHT22;6495;51.808;7.478;2022-09-04T14:17:47;31.20;56.80
12853;DHT22;6495;51.808;7.478;2022-09-04T14:20:33;31.20;57.20
12853;DHT22;6495;51.808;7.478;2022-09-04T14:23:15;31.20;57.30
12853;DHT22;6495;51.808;7.478;2022-09-04T14:25:52;31.10;57.50
12853;DHT22;6495;51.808;7.478;2022-09-04T14:28:29;31.10;57.30
12853;DHT22;6495;51.808;7.478;2022-09-04T14:31:10;31.10;56.70
12853;DHT22;6495;51.808;7.478;2022-09-04T14:33:51;31.00;56.50
12853;DHT22;6495;51.808;7.478;2022-09-04T14:36:32;31.00;57.10
12853;DHT22;6495;51.808;7.478;2022-09-04T14:39:15;30.90;56.90
12853;DHT22;6495;51.808;7.478;2022-09-04T14:41:59;30.90;56.80
12853;DHT22;6495;51.808;7.478;2022-09-04T14:44:51;30.80;56.50
12853;DHT22;6495;51.808;7.478;2022-09-04T14:47:42;30.80;56.50
12853;DHT22;6495;51.808;7.478;2022-09-04T14:50:15;30.80;56.60
12853;DHT22;6495;51.808;7.478;2022-09-04T14:52:47;30.80;56.50
12853;DHT22;6495;51.808;7.478;2022-09-04T14:55:24;30.80;56.50
12853;DHT22;6495;51.808;7.478;2022-09-04T14:57:57;30.80;56.40
12853;DHT22;6495;51.808;7.478;2022-09-04T15:00:51;30.90;56.90
12853;DHT22;6495;51.808;7.478;2022-09-04T15:03:27;30.90;56.00
12853;DHT22;6495;51.808;7.478;2022-09-04T15:06:11;31.00;56.60
12853;DHT22;6495;51.808;7.478;2022-09-04T15:08:48;31.00;56.40
12853;DHT22;6495;51.808;7.478;2022-09-04T15:11:26;31.00;56.40
12853;DHT22;6495;51.808;7.478;2022-09-04T15:14:05;31.10;56.20
12853;DHT22;6495;51.808;7.478;2022-09-04T15:16:51;31.10;56.40
12853;DHT22;6495;51.808;7.478;2022-09-04T15:19:37;31.10;56.30
12853;DHT22;6495;51.808;7.478;2022-09-04T15:22:18;31.10;56.30
12853;DHT22;6495;51.808;7.478;2022-09-04T15:25:05;31.10;57.00
12853;DHT22;6495;51.808;7.478;2022-09-04T15:27:42;31.10;56.70
12853;DHT22;6495;51.808;7.478;2022-09-04T15:30:24;31.10;56.20
12853;DHT22;6495;51.808;7.478;2022-09-04T15:33:07;31.10;56.20
12853;DHT22;6495;51.808;7.478;2022-09-04T15:36:23;31.20;56.20
12853;DHT22;6495;51.808;7.478;2022-09-04T15:39:21;31.20;55.50
12853;DHT22;6495;51.808;7.478;2022-09-04T15:42:36;31.20;56.10
12853;DHT22;6495;51.808;7.478;2022-09-04T15:45:21;31.20;55.40
12853;DHT22;6495;51.808;7.478;2022-09-04T15:48:33;31.20;56.10
12853;DHT22;6495;51.808;7.478;2022-09-04T15:51:20;31.20;55.70
12853;DHT22;6495;51.808;7.478;2022-09-04T15:54:17;31.20;56.20
12853;DHT22;6495;51.808;7.478;2022-09-04T15:56:59;31.20;55.70
12853;DHT22;6495;51.808;7.478;2022-09-04T15:59:41;31.20;56.10
12853;DHT22;6495;51.808;7.478;2022-09-04T16:02:26;31.20;55.80
12853;DHT22;6495;51.808;7.478;2022-09-04T16:05:12;31.20;55.80
12853;DHT22;6495;51.808;7.478;2022-09-04T16:07:54;31.20;55.50
12853;DHT22;6495;51.808;7.478;2022-09-04T16:10:43;31.10;55.50
12853;DHT22;6495;51.808;7.478;2022-09-04T16:13:50;31.10;55.20
12853;DHT22;6495;51.808;7.478;2022-09-04T16:16:27;31.00;54.80
12853;DHT22;6495;51.808;7.478;2022-09-04T16:19:06;31.00;55.20
12853;DHT22;6495;51.808;7.478;2022-09-04T16:21:49;30.90;55.30
12853;DHT22;6495;51.808;7.478;2022-09-04T16:24:31;30.80;55.20
12853;DHT22;6495;51.808;7.478;2022-09-04T16:27:05;30.80;55.20
12853;DHT22;6495;51.808;7.478;2022-09-04T16:29:42;30.70;55.30
12853;DHT22;6495;51.808;7.478;2022-09-04T16:32:19;30.70;55.30
12853;DHT22;6495;51.808;7.478;2022-09-04T16:34:51;30.60;55.30
12853;DHT22;6495;51.808;7.478;2022-09-04T16:37:29;30.60;55.50
12853;DHT22;6495;51.808;7.478;2022-09-04T16:40:12;30.50;55.50
12853;DHT22;6495;51.808;7.478;2022-09-04T16:42:52;30.50;55.50
12853;DHT22;6495;51.808;7.478;2022-09-04T16:45:27;30.50;55.80
12853;DHT22;6495;51.808;7.478;2022-09-04T16:48:06;30.40;55.80
12853;DHT22;6495;51.808;7.478;2022-09-04T16:51:04;30.40;55.90
12853;DHT22;6495;51.808;7.478;2022-09-04T16:54:03;30.30;55.90
12853;DHT22;6495;51.808;7.478;2022-09-04T16:56:37;30.30;55.90
12853;DHT22;6495;51.808;7.478;2022-09-04T16:59:14;30.20;55.90
12853;DHT22;6495;51.808;7.478;2022-09-04T17:01:56;30.20;55.90
12853;DHT22;6495;51.808;7.478;2022-09-04T17:04:32;30.20;55.90
12853;DHT22;6495;51.808;7.478;2022-09-04T17:07:13;30.20;56.00
12853;DHT22;6495;51.808;7.478;2022-09-04T17:09:55;30.10;56.10
12853;DHT22;6495;51.808;7.478;2022-09-04T17:12:47;30.10;56.10
12853;DHT22;6495;51.808;7.478;2022-09-04T17:15:24;30.10;56.30
12853;DHT22;6495;51.808;7.478;2022-09-04T17:18:19;30.10;56.90
12853;DHT22;6495;51.808;7.478;2022-09-04T17:20:59;30.10;56.50
12853;DHT22;6495;51.808;7.478;2022-09-04T17:23:55;30.00;56.40
12853;DHT22;6495;51.808;7.478;2022-09-04T17:26:54;29.90;56.50
12853;DHT22;6495;51.808;7.478;2022-09-04T17:29:48;29.90;56.50
12853;DHT22;6495;51.808;7.478;2022-09-04T17:32:25;29.80;56.60
12853;DHT22;6495;51.808;7.478;2022-09-04T17:35:21;29.80;56.70
12853;DHT22;6495;51.808;7.478;2022-09-04T17:38:22;29.80;56.90
12853;DHT22;6495;51.808;7.478;2022-09-04T17:41:22;29.70;57.00
12853;DHT22;6495;51.808;7.478;2022-09-04T17:44:37;29.70;57.10
12853;DHT22;6495;51.808;7.478;2022-09-04T17:47:27;29.60;57.20
12853;DHT22;6495;51.808;7.478;2022-09-04T17:50:00;29.50;57.30
12853;DHT22;6495;51.808;7.478;2022-09-04T17:52:30;29.40;57.40
12853;DHT22;6495;51.808;7.478;2022-09-04T17:55:03;29.30;57.50
12853;DHT22;6495;51.808;7.478;2022-09-04T17:57:57;29.20;57.60
12853;DHT22;6495;51.808;7.478;2022-09-04T18:00:54;29.20;57.80
12853;DHT22;6495;51.808;7.478;2022-09-04T18:03:57;29.00;57.80
12853;DHT22;6495;51.808;7.478;2022-09-04T18:06:52;29.00;58.00
12853;DHT22;6495;51.808;7.478;2022-09-04T18:09:31;28.90;58.00
12853;DHT22;6495;51.808;7.478;2022-09-04T18:12:13;28.90;58.10
12853;DHT22;6495;51.808;7.478;2022-09-04T18:14:55;28.80;58.10
12853;DHT22;6495;51.808;7.478;2022-09-04T18:18:00;28.70;58.20
12853;DHT22;6495;51.808;7.478;2022-09-04T18:20:39;28.60;58.30
12853;DHT22;6495;51.808;7.478;2022-09-04T18:23:38;28.60;58.30
12853;DHT22;6495;51.808;7.478;2022-09-04T18:26:24;28.50;58.40
12853;DHT22;6495;51.808;7.478;2022-09-04T18:29:25;28.40;58.40
12853;DHT22;6495;51.808;7.478;2022-09-04T18:32:30;28.40;58.40
12853;DHT22;6495;51.808;7.478;2022-09-04T18:35:36;28.20;58.40
12853;DHT22;6495;51.808;7.478;2022-09-04T18:38:35;28.20;58.60
12853;DHT22;6495;51.808;7.478;2022-09-04T18:41:11;28.10;58.80
12853;DHT22;6495;51.808;7.478;2022-09-04T18:44:09;28.00;59.00
12853;DHT22;6495;51.808;7.478;2022-09-04T18:47:17;27.90;59.20
12853;DHT22;6495;51.808;7.478;2022-09-04T18:50:09;27.80;59.50
12853;DHT22;6495;51.808;7.478;2022-09-04T18:53:11;27.70;59.40
12853;DHT22;6495;51.808;7.478;2022-09-04T18:55:46;27.60;59.70
12853;DHT22;6495;51.808;7.478;2022-09-04T18:58:38;27.50;59.60
12853;DHT22;6495;51.808;7.478;2022-09-04T19:01:17;27.40;59.90
12853;DHT22;6495;51.808;7.478;2022-09-04T19:03:55;27.30;59.90
12853;DHT22;6495;51.808;7.478;2022-09-04T19:06:51;27.20;60.00
12853;DHT22;6495;51.808;7.478;2022-09-04T19:09:59;27.10;60.10
12853;DHT22;6495;51.808;7.478;2022-09-04T19:12:39;27.10;60.90
12853;DHT22;6495;51.808;7.478;2022-09-04T19:18:22;26.90;61.00
12853;DHT22;6495;51.808;7.478;2022-09-04T19:21:29;26.80;60.30
12853;DHT22;6495;51.808;7.478;2022-09-04T19:24:22;26.80;61.90
12853;DHT22;6495;51.808;7.478;2022-09-04T19:27:27;26.70;61.50
12853;DHT22;6495;51.808;7.478;2022-09-04T19:30:03;26.70;62.10
12853;DHT22;6495;51.808;7.478;2022-09-04T19:33:04;26.60;61.70
12853;DHT22;6495;51.808;7.478;2022-09-04T19:35:43;26.50;62.40
12853;DHT22;6495;51.808;7.478;2022-09-04T19:38:17;26.50;62.10
12853;DHT22;6495;51.808;7.478;2022-09-04T19:41:15;26.40;62.20
12853;DHT22;6495;51.808;7.478;2022-09-04T19:44:11;26.30;62.40
12853;DHT22;6495;51.808;7.478;2022-09-04T19:47:18;26.30;62.70
12853;DHT22;6495;51.808;7.478;2022-09-04T19:50:05;26.20;62.80
12853;DHT22;6495;51.808;7.478;2022-09-04T19:53:09;26.10;63.00
12853;DHT22;6495;51.808;7.478;2022-09-04T19:56:18;26.00;62.90
12853;DHT22;6495;51.808;7.478;2022-09-04T19:58:55;25.90;63.10
12853;DHT22;6495;51.808;7.478;2022-09-04T20:01:39;25.80;63.20
12853;DHT22;6495;51.808;7.478;2022-09-04T20:04:23;25.70;63.60